Indian Springs, Nevada Weather observations

Data are for observation ending at time listed.
 Day   Time    Ave.   Ave.  Ave.  Vector   Max.   Stn.    Total    Solar   Ave.  
  of    of     Air    Rel.  Wind   Wind    Wind   Baro.  Precip.   Rad.    Soil  
Year   Day     Temp.  Hum.  Speed  Dir.    Gust   Pres.                    Temp. 
2014   (PST)    F      %     mph   deg.    mph     mb.     in.     W/m2     F   
------------------------------------------------------------------------------
 273   19:50   69.9    25    0.1   219      0.9   899.8    0.00       0    81.5
 273   20:00   69.9    25    0.2    38      1.5   899.8    0.00       0    81.2
 273   20:10   69.4    24    1.2   202      2.9   899.9    0.00       0    81.0
 273   20:20   69.8    24    0.2   137      1.2   899.9    0.00       0    80.8
 273   20:30   69.2    25    0.1   357      1.0   899.8    0.00       0    80.6
 273   20:40   68.3    27    0.8   355      3.8   899.7    0.00       0    80.3
 273   20:50   68.4    26    0.3   300      1.8   899.8    0.00       0    80.2
 273   21:00   67.1    27    0.4   167      1.8   899.8    0.00       0    80.0
 273   21:10   66.1    27    0.2    92      1.7   899.6    0.00       0    79.8
 273   21:20   64.9    30    0.2   191      1.2   899.8    0.00       0    79.6
 273   21:30   65.3    28    0.5   223      1.6   899.5    0.00       0    79.4
 273   21:40   65.1    28    0.4   212      1.6   899.4    0.00       0    79.2
 273   21:50   65.4    26    0.9   236      2.1   899.2    0.00       0    79.0
 273   22:00   64.7    28    0.5    46      2.0   899.2    0.00       0    78.8
 273   22:10   64.1    27    0.9   293      2.5   899.4    0.00       0    78.6
 273   22:20   63.6    29    0.2    55      1.1   899.3    0.00       0    78.4
 273   22:30   63.6    30    0.5   188      1.7   899.2    0.00       0    78.2
 273   22:40   63.7    29    0.2   186      1.1   899.2    0.00       0    78.1
 273   22:50   62.8    31    0.0     0      0.0   899.2    0.00       0    77.9
 273   23:00   62.6    32    0.0     0      0.0   899.1    0.00       0    77.7
 273   23:10   62.8    32    0.0     0      0.0   899.2    0.00       0    77.5
 273   23:20   62.9    29    1.1   239      2.3   899.1    0.00       0    77.4
 273   23:30   62.7    29    1.0   291      1.8   899.1    0.00       0    77.2
 273   23:40   62.6    30    0.7   294      1.8   899.1    0.00       0    77.0
 273   23:50   62.5    29    0.5   236      1.7   899.1    0.00       0    76.9
 274    0:00   61.8    30    0.1   229      1.1   899.2    0.00       0    76.7
 274    0:10   61.1    32    0.5   291      1.7   899.3    0.00       0    76.6
 274    0:20   61.2    31    0.7   228      1.5   899.3    0.00       0    76.4
 274    0:30   61.2    31    1.1   231      2.8   899.2    0.00       0    76.2
 274    0:40   62.7    29    2.8   242      4.7   899.3    0.00       0    76.1
 274    0:50   62.5    29    2.5   231      4.5   899.4    0.00       0    75.9
 274    1:00   62.1    30    2.2   240      4.3   899.4    0.00       0    75.8
 274    1:10   62.2    30    1.5   244      2.8   899.5    0.00       0    75.6
 274    1:20   62.2    31    0.8   291      2.0   899.6    0.00       0    75.5
 274    1:30   61.3    31    1.6   229      2.6   899.5    0.00       0    75.3
 274    1:40   60.7    32    0.9   264      2.4   899.6    0.00       0    75.2
 274    1:50   60.0    32    0.7   215      1.8   899.3    0.00       0    75.1
 274    2:00   59.7    33    0.4   111      1.2   899.4    0.00       0    74.9
 274    2:10   58.1    38    0.2    78      1.2   899.4    0.00       0    74.8
 274    2:20   57.1    39    0.4    96      2.0   899.3    0.00       0    74.7
 274    2:30   56.9    38    0.5   192      1.5   899.4    0.00       0    74.6
 274    2:40   56.6    40    1.0    79      3.4   899.3    0.00       0    74.4
 274    2:50   56.0    41    0.4    87      2.9   899.2    0.00       0    74.2
 274    3:00   55.5    42    0.9    57      3.2   899.5    0.00       0    74.1
 274    3:10   55.7    41    0.3   183      1.3   899.5    0.00       0    74.0
 274    3:20   56.7    39    1.2   225      2.2   899.6    0.00       0    73.8
 274    3:30   57.4    38    0.7   206      2.2   899.7    0.00       0    73.7
 274    3:40   58.3    36    1.8   236      3.7   900.0    0.00       0    73.6
 274    3:50   59.2    34    2.0   221      5.1   900.1    0.00       0    73.4
 274    4:00   57.8    38    0.7   191      2.0   900.3    0.00       0    73.3
 274    4:10   57.5    36    2.5   232      4.4   900.5    0.00       0    73.1
 274    4:20   58.1    35    1.3   231      2.3   900.6    0.00       0    73.0
 274    4:30   58.6    34    2.0   229      3.4   900.7    0.00       0    72.9
 274    4:40   58.7    35    2.2   231      3.9   900.8    0.00       0    72.8
 274    4:50   58.9    35    1.0   236      2.3   901.0    0.00       0    72.7
 274    5:00   59.2    35    1.1   234      2.1   901.2    0.00       0    72.6
 274    5:10   58.6    36    0.3   268      1.8   901.3    0.00       0    72.4
 274    5:20   57.5    39    0.5    70      3.2   901.6    0.00       0    72.3
 274    5:30   57.0    40    0.2   227      1.6   901.7    0.00       2    72.2
 274    5:40   56.4    42    0.2   196      1.2   901.7    0.00       3    72.1
 274    5:50   56.1    43    0.6   169      2.7   901.8    0.00       6    72.0
 274    6:00   56.6    41    1.2   243      3.7   901.9    0.00      14    71.9
 274    6:10   58.2    39    1.3   281      3.7   902.1    0.00      49    71.8
 274    6:20   58.7    36    1.3   295      3.4   902.4    0.00      87    71.7
 274    6:30   59.1    37    1.3    87      4.1   902.8    0.00     129    71.5
 274    6:40   59.7    37    1.1   156      3.6   903.0    0.00     164    71.4
 274    6:50   62.1    35    0.5   152      1.5   903.3    0.00     199    71.3
 274    7:00   64.5    32    2.1   244      3.7   903.7    0.00     240    71.3
 274    7:10   65.7    31    1.3   266      3.0   904.1    0.00     276    71.2
 274    7:20   66.3    31    1.9   302      3.9   904.5    0.00     310    71.1
 274    7:30   66.4    32    1.7   291      3.2   904.9    0.00     348    71.1
 274    7:40   67.3    31    1.2   276      2.7   905.3    0.00     386    71.1
 274    7:50   67.4    31    1.7   328      4.4   905.7    0.00     427    71.2
 274    8:00   68.2    30    0.9   148      2.7   906.1    0.00     461    71.3
 274    8:10   69.4    30    1.7    27      3.7   906.2    0.00     502    71.4
 274    8:20   69.8    29    2.1   340      5.0   906.5    0.00     532    71.5
 274    8:30   70.2    28    1.7   357      4.5   906.6    0.00     567    71.7
 274    8:40   71.7    26    1.4    19      5.2   906.9    0.00     597    71.9
 274    8:50   71.3    27    1.9    11      6.1   907.2    0.00     628    72.1
 274    9:00   71.5    27    2.3   342      8.5   907.4    0.00     656    72.4
 274    9:10   71.5    26    2.9    45      6.9   907.4    0.00     689    72.7
 274    9:20   72.3    25    1.7    77      5.6   907.6    0.00     709    73.0
 274    9:30   72.3    26    2.0   333      5.4   907.7    0.00     732    73.3
 274    9:40   71.8    25    1.7   240      5.3   907.9    0.00     754    73.6
 274    9:50   72.0    25    1.8   285      4.1   907.9    0.00     773    74.0
 274   10:00   73.0    22    3.2    24      9.3   907.9    0.00     800    74.3
 274   10:10   73.8    21    3.3    20      8.0   907.8    0.00     741    74.7
 274   10:20   73.7    21    3.7    25      9.2   907.7    0.00     742    75.1
 274   10:30   74.0    20    4.1    21     11.3   907.5    0.00     853    75.5
 274   10:40   73.7    20    4.5    38      9.8   907.3    0.00     868    75.8
 274   10:50   74.0    20    2.2    21      7.7   907.1    0.00     745    76.1
 274   11:00   74.2    19    2.7    35      8.2   907.0    0.00     851    76.3
 274   11:10   74.7    19    2.1    18      8.8   907.1    0.00     819    76.5
 274   11:20   74.4    18    4.2    25     14.7   907.0    0.00     887    76.6
 274   11:30   74.8    18    2.5    24      6.4   906.9    0.00     899    76.7
 274   11:40   75.0    18    2.8     6      6.9   906.7    0.00     898    76.8
 274   11:50   75.4    16    2.8   345      6.7   906.7    0.00     898    76.9
 274   12:00   75.9    15    4.0    22     11.3   906.8    0.00     893    77.0
 274   12:10   75.6    15    3.7    49      8.3   906.8    0.00     893    77.2
 274   12:20   75.9    14    2.4   347      6.4   906.8    0.00     889    77.3
 274   12:30   76.7    14    4.4    28     11.7   906.8    0.00     854    77.6
 274   12:40   75.8    14    3.4   354     10.0   906.9    0.00     842    77.9
 274   12:50   75.7    14    2.4   290      9.3   906.7    0.00     858    78.2
 274   13:00   75.7    13    2.3   356      4.8   906.7    0.00     746    78.5
 274   13:10   76.6    13    2.8    47      7.8   906.6    0.00     601    78.9
 274   13:20   76.9    13    2.8    22      7.4   906.6    0.00     816    79.3
 274   13:30   77.4    12    3.0   360      7.8   906.8    0.00     798    79.6
 274   13:40   77.3    11    3.6    13      9.1   906.8    0.00     779    80.0
 274   13:50   77.3    11    3.6   341      9.6   906.9    0.00     761    80.3
 274   14:00   77.0    10    4.3   336     10.3   906.7    0.00     737    80.7
 274   14:10   77.4    10    4.1    30      9.0   906.8    0.00     706    81.0
 274   14:20   78.3    10    3.0     9      6.9   906.8    0.00     596    81.3
 274   14:30   78.3     9    3.6    13     10.7   906.7    0.00     647    81.6
 274   14:40   78.2     8    4.0    26      9.6   906.7    0.00     616    81.9
 274   14:50   77.6     9    3.9    26     12.4   906.6    0.00     208    82.2
 274   15:00   77.4     9    3.7    28      9.3   906.3    0.00      43    82.4
 274   15:10   77.9     9    3.1    34      8.1   906.2    0.00     330    82.6
 274   15:20   77.3     9    3.9    78      9.3   906.2    0.00     395    82.8
 274   15:30   77.5     9    4.5    43      9.4   906.3    0.00     442    83.0
 274   15:40   77.7     9    3.5    36      7.9   906.4    0.00     405    83.1
 274   15:50   77.6     9    2.9    36      6.9   906.4    0.00     367    83.1
 274   16:00   78.0     9    2.4    28      5.5   906.3    0.00     330    83.1
 274   16:10   78.2     9    2.5    18      6.5   906.4    0.00     293    83.2
 274   16:20   78.0     9    2.1     3      4.9   906.4    0.00     257    83.1
 274   16:30   78.0     9    2.0    23      5.3   906.4    0.00     216    83.1
 274   16:40   77.6    10    1.8   360      5.8   906.3    0.00     182    83.0
 274   16:50   76.9    10    2.3    10      6.8   906.3    0.00     142    83.0
 274   17:00   76.4    10    2.1     7      4.8   906.3    0.00      98    83.0
 274   17:10   75.4    11    2.0    32      4.9   906.3    0.00      49    82.9
 274   17:20   74.0    11    2.0    22      5.0   906.1    0.00      15    82.8
 274   17:30   73.2    11    1.7    25      5.1   906.2    0.00       8    82.7
 274   17:40   72.5    11    1.9    38      4.7   906.2    0.00       3    82.6
 274   17:50   71.8    11    2.2    49      5.7   906.3    0.00       0    82.4
 274   18:00   71.0    12    1.5    89      4.0   906.3    0.00       0    82.3
 274   18:10   70.1    12    3.0    80      7.5   906.2    0.00       0    82.1
 274   18:20   69.9    12    2.6    73      5.2   906.2    0.00       0    81.9
 274   18:30   69.6    12    1.9    84      3.9   906.4    0.00       0    81.7
 274   18:40   68.6    13    0.9   127      2.8   906.5    0.00       0    81.4
 274   18:50   67.5    13    1.4   101      5.0   906.4    0.00       0    81.2
 274   19:00   68.0    12    2.5    82      5.7   906.3    0.00       0    81.0
 274   19:10   67.7    12    1.4   103      4.9   906.4    0.00       0    80.7
 274   19:20   67.0    12    1.2   118      3.9   906.5    0.00       0    80.5
 274   19:30   66.7    13    0.2   148      2.0   906.8    0.00       0    80.2
 274   19:40   65.9    13    0.3   276      1.4   906.8    0.00       0    80.0

Return to Indian Springs, Nevada graphs page.


Western Regional Climate Center,wrcc@dri.edu